Terminal Aerodrome Forecast
Issued by NWS Jackson, MS

Home | Current Version | Previous Version | Text Only | Print | Product List | Glossary On
Versions: 1 2 3 4 5 6 7 8 9 10 11 12 13 14 15 16 17
000
FTUS44 KMEG 210531
TAFTUP
TAF
KTUP 210531Z 2106/2206 16004KT P6SM SCT250
      TEMPO 2106/2110 4SM BR
     FM211000 19005KT 6SM -SHRA VCTS BKN035CB OVC150
     FM211500 18008KT P6SM SCT020 BKN150
     FM220200 16010KT 6SM -TSRA BKN025CB OVC150
      TEMPO 2202/2206 2SM +TSRA BR BKN015CB=

USA.gov is the U.S. government's official web portal to all federal, state and local government web resources and services.